Terminal Aerodrome Forecast
Issued by NWS Northern Indiana

Home | Current Version | Previous Version | Graphics & Text | Print | Product List | Glossary On
Versions: 1 2 3 4 5 6 7 8 9 10 11 12 13 14 15 16
216
FTUS43 KIWX 101129
TAFFWA
TAF
KFWA 101129Z 1012/1112 26017G23KT 3SM -SN BR SCT015 OVC035
      TEMPO 1012/1016 2SM -SHSN BR OVC015
     FM101600 30014G23KT 4SM -SHSN BR BKN020
     FM110000 30010KT P6SM -SHSN BKN025=

USA.gov is the U.S. government's official web portal to all federal, state and local government web resources and services.